Aérodrome :
LOGIN :

S'inscrire | Disclaimer

   EN    FR    IT 

 










Légende :    VFR   VFR Marginal   IFR   IFR Intensif   IFR Très Intensif
Visi : 
Plafond : 
>= 8 km
>= 3000ft
5 à 8 km
1000 à 3000 ft
1500m à 5 km
500 à 1000 ft
800 à 1500m
200 à 500 ft
< 800m
< 200 ft
Symboles :   Orages  Brouillard  Fortes neiges  Fortes précipitations  Vent > 20 kt
SIGMETs :   Divers  Orages  Givrage  Turbulence  Onde Orograph.  Cendres Volcan.






- Altitude de l'aérodrome : 919 ft
- Code IATA : IFO


UKLI - Ivano Frankivs'k

DERNIER METAR :
  • 271130Z 29004MPS 260V350 9999 BKN036 04/M02 Q1003 R28/190068 NOSIG

METARs EXPIRÉS :
  • 271100Z 28004MPS 250V330 9999 BKN040 05/M01 Q1003 R28/190068 NOSIG
  • 271030Z 29004MPS 260V360 9999 OVC030 03/M02 Q1003 R28/190068 NOSIG
  • 271000Z 31004MPS 250V010 9999 OVC033 03/M02 Q1003 R28/190068 NOSIG
  • 270930Z 29005MPS 250V340 9999 OVC026 03/M02 Q1002 R28/190068 NOSIG
  • 270900Z 30004MPS 250V350 9999 OVC030 03/M02 Q1002 R28/190068 NOSIG

TAF TAF UKLI
Valide du 27 à 12h jusqu'au 27 à 21h UTC


271100Z 2712/2721 30005MPS 9999 BKN030 TX05/2712Z TN00/2718Z
TEMPO 2712/2718 32007G12MPS 2100 -SHRA BKN007 BKN010CB



MET'MAP, la Météo Aéronautique d'un coup d'oeil ! - Copyright ORBIFLY Décembre 2007 - Disclaimer

ORBIFLY MET'MAP TEAM :

Programmation & Développement : Alexandra Zaïnal
Sur une idée originale de : Baudouin d'Aumeries
Assistance à la programmation : Marc-Olivier Méhu
Soutien technique & logistique : Manuel Goepfert

Contact : metmap@orbifly.com




SOURCES & CREDITS :

   NOAA